sensor_id;sensor_type;location;lat;lon;timestamp;pressure;altitude;pressure_sealevel;temperature;humidity
49841;BME280;35738;49.890;5.930;2023-06-10T00:00:47;95477.59;;;17.59;100.00
49841;BME280;35738;49.890;5.930;2023-06-10T00:03:13;95479.97;;;17.57;100.00
49841;BME280;35738;49.890;5.930;2023-06-10T00:05:41;95477.63;;;17.63;100.00
49841;BME280;35738;49.890;5.930;2023-06-10T00:08:08;95484.75;;;17.60;100.00
49841;BME280;35738;49.890;5.930;2023-06-10T00:10:35;95485.16;;;17.62;100.00
49841;BME280;35738;49.890;5.930;2023-06-10T00:13:03;95483.13;;;17.56;100.00
49841;BME280;35738;49.890;5.930;2023-06-10T00:15:31;95478.72;;;17.51;100.00
49841;BME280;35738;49.890;5.930;2023-06-10T00:17:57;95472.22;;;17.36;100.00
49841;BME280;35738;49.890;5.930;2023-06-10T00:20:24;95475.78;;;17.33;100.00
49841;BME280;35738;49.890;5.930;2023-06-10T00:22:51;95475.38;;;17.35;100.00
49841;BME280;35738;49.890;5.930;2023-06-10T00:25:18;95479.75;;;17.32;100.00
49841;BME280;35738;49.890;5.930;2023-06-10T00:27:45;95477.38;;;17.34;100.00
49841;BME280;35738;49.890;5.930;2023-06-10T00:30:12;95480.50;;;17.29;100.00
49841;BME280;35738;49.890;5.930;2023-06-10T00:32:39;95477.63;;;17.19;100.00
49841;BME280;35738;49.890;5.930;2023-06-10T00:35:06;95485.09;;;17.11;100.00
49841;BME280;35738;49.890;5.930;2023-06-10T00:37:34;95475.47;;;17.05;100.00
49841;BME280;35738;49.890;5.930;2023-06-10T00:40:03;95467.84;;;16.98;100.00
49841;BME280;35738;49.890;5.930;2023-06-10T00:42:30;95474.97;;;16.96;100.00
49841;BME280;35738;49.890;5.930;2023-06-10T00:44:57;95475.69;;;16.89;100.00
49841;BME280;35738;49.890;5.930;2023-06-10T00:47:25;95472.03;;;16.81;100.00
49841;BME280;35738;49.890;5.930;2023-06-10T00:49:52;95471.53;;;16.72;100.00
49841;BME280;35738;49.890;5.930;2023-06-10T00:52:21;95477.41;;;16.67;100.00
49841;BME280;35738;49.890;5.930;2023-06-10T00:54:48;95469.78;;;16.61;100.00
49841;BME280;35738;49.890;5.930;2023-06-10T00:57:15;95466.97;;;16.57;100.00
49841;BME280;35738;49.890;5.930;2023-06-10T00:59:43;95479.63;;;16.55;100.00
49841;BME280;35738;49.890;5.930;2023-06-10T01:02:13;95470.56;;;16.61;100.00
49841;BME280;35738;49.890;5.930;2023-06-10T01:04:40;95480.91;;;16.64;100.00
49841;BME280;35738;49.890;5.930;2023-06-10T01:07:28;95479.66;;;16.58;100.00
49841;BME280;35738;49.890;5.930;2023-06-10T01:12:39;95489.06;;;16.50;100.00
49841;BME280;35738;49.890;5.930;2023-06-10T01:15:07;95482.44;;;16.58;100.00
49841;BME280;35738;49.890;5.930;2023-06-10T01:17:52;95486.44;;;16.61;100.00
49841;BME280;35738;49.890;5.930;2023-06-10T01:20:20;95490.00;;;16.61;100.00
49841;BME280;35738;49.890;5.930;2023-06-10T01:22:47;95493.88;;;16.53;100.00
49841;BME280;35738;49.890;5.930;2023-06-10T01:25:14;95489.91;;;16.54;100.00
49841;BME280;35738;49.890;5.930;2023-06-10T01:27:42;95491.47;;;16.51;100.00
49841;BME280;35738;49.890;5.930;2023-06-10T01:30:15;95494.97;;;16.45;100.00
49841;BME280;35738;49.890;5.930;2023-06-10T01:32:53;95498.84;;;16.40;100.00
49841;BME280;35738;49.890;5.930;2023-06-10T01:35:24;95495.97;;;16.33;100.00
49841;BME280;35738;49.890;5.930;2023-06-10T01:37:53;95498.91;;;16.17;100.00
49841;BME280;35738;49.890;5.930;2023-06-10T01:40:21;95496.34;;;16.05;100.00
49841;BME280;35738;49.890;5.930;2023-06-10T01:42:47;95497.91;;;16.03;100.00
49841;BME280;35738;49.890;5.930;2023-06-10T01:45:15;95498.59;;;15.96;100.00
49841;BME280;35738;49.890;5.930;2023-06-10T01:47:42;95504.53;;;15.95;100.00
49841;BME280;35738;49.890;5.930;2023-06-10T01:50:09;95507.25;;;15.91;100.00
49841;BME280;35738;49.890;5.930;2023-06-10T01:52:37;95505.69;;;15.94;100.00
49841;BME280;35738;49.890;5.930;2023-06-10T01:55:04;95505.00;;;16.00;100.00
49841;BME280;35738;49.890;5.930;2023-06-10T01:57:31;95506.06;;;15.92;100.00
49841;BME280;35738;49.890;5.930;2023-06-10T01:59:57;95504.84;;;15.89;100.00
49841;BME280;35738;49.890;5.930;2023-06-10T02:02:24;95500.84;;;15.87;100.00
49841;BME280;35738;49.890;5.930;2023-06-10T02:04:51;95502.53;;;15.95;100.00
49841;BME280;35738;49.890;5.930;2023-06-10T02:07:17;95512.16;;;16.01;100.00
49841;BME280;35738;49.890;5.930;2023-06-10T02:09:44;95501.81;;;15.98;100.00
49841;BME280;35738;49.890;5.930;2023-06-10T02:12:11;95505.47;;;16.06;100.00
49841;BME280;35738;49.890;5.930;2023-06-10T02:14:38;95503.44;;;16.03;100.00
49841;BME280;35738;49.890;5.930;2023-06-10T02:17:04;95513.38;;;16.04;100.00
49841;BME280;35738;49.890;5.930;2023-06-10T02:19:31;95509.84;;;16.07;100.00
49841;BME280;35738;49.890;5.930;2023-06-10T02:21:58;95508.34;;;16.13;100.00
49841;BME280;35738;49.890;5.930;2023-06-10T02:24:25;95513.09;;;16.12;100.00
49841;BME280;35738;49.890;5.930;2023-06-10T02:26:52;95511.03;;;16.06;100.00
49841;BME280;35738;49.890;5.930;2023-06-10T02:29:19;95503.09;;;16.04;100.00
49841;BME280;35738;49.890;5.930;2023-06-10T02:31:46;95502.72;;;16.06;100.00
49841;BME280;35738;49.890;5.930;2023-06-10T02:34:13;95507.78;;;16.00;100.00
49841;BME280;35738;49.890;5.930;2023-06-10T02:36:40;95511.81;;;16.06;100.00
49841;BME280;35738;49.890;5.930;2023-06-10T02:39:07;95515.78;;;16.05;100.00
49841;BME280;35738;49.890;5.930;2023-06-10T02:41:34;95509.06;;;16.06;100.00
49841;BME280;35738;49.890;5.930;2023-06-10T02:44:01;95512.25;;;16.08;100.00
49841;BME280;35738;49.890;5.930;2023-06-10T02:46:27;95520.16;;;16.06;100.00
49841;BME280;35738;49.890;5.930;2023-06-10T02:48:55;95515.63;;;15.95;100.00
49841;BME280;35738;49.890;5.930;2023-06-10T02:51:21;95508.16;;;15.99;100.00
49841;BME280;35738;49.890;5.930;2023-06-10T02:53:48;95518.38;;;15.95;100.00
49841;BME280;35738;49.890;5.930;2023-06-10T02:56:18;95512.91;;;15.98;100.00
49841;BME280;35738;49.890;5.930;2023-06-10T02:58:45;95515.19;;;15.93;100.00
49841;BME280;35738;49.890;5.930;2023-06-10T03:01:12;95517.06;;;15.85;100.00
49841;BME280;35738;49.890;5.930;2023-06-10T03:03:39;95513.03;;;15.82;100.00
49841;BME280;35738;49.890;5.930;2023-06-10T03:06:10;95523.41;;;15.85;100.00
49841;BME280;35738;49.890;5.930;2023-06-10T03:08:36;95527.72;;;15.83;100.00
49841;BME280;35738;49.890;5.930;2023-06-10T03:11:04;95529.31;;;15.84;100.00
49841;BME280;35738;49.890;5.930;2023-06-10T03:13:31;95526.09;;;15.82;100.00
49841;BME280;35738;49.890;5.930;2023-06-10T03:15:58;95528.03;;;15.78;100.00
49841;BME280;35738;49.890;5.930;2023-06-10T03:18:26;95524.44;;;15.77;100.00
49841;BME280;35738;49.890;5.930;2023-06-10T03:20:54;95527.09;;;15.70;100.00
49841;BME280;35738;49.890;5.930;2023-06-10T03:23:22;95526.63;;;15.65;100.00
49841;BME280;35738;49.890;5.930;2023-06-10T03:25:49;95529.44;;;15.68;100.00
49841;BME280;35738;49.890;5.930;2023-06-10T03:28:15;95536.22;;;15.71;100.00
49841;BME280;35738;49.890;5.930;2023-06-10T03:30:42;95529.81;;;15.67;100.00
49841;BME280;35738;49.890;5.930;2023-06-10T03:33:08;95535.22;;;15.60;100.00
49841;BME280;35738;49.890;5.930;2023-06-10T03:35:35;95535.22;;;15.60;100.00
49841;BME280;35738;49.890;5.930;2023-06-10T03:38:02;95528.66;;;15.68;100.00
49841;BME280;35738;49.890;5.930;2023-06-10T03:40:29;95534.56;;;15.66;100.00
49841;BME280;35738;49.890;5.930;2023-06-10T03:42:58;95543.25;;;15.65;100.00
49841;BME280;35738;49.890;5.930;2023-06-10T03:45:24;95537.81;;;15.72;100.00
49841;BME280;35738;49.890;5.930;2023-06-10T03:47:51;95542.75;;;15.82;100.00
49841;BME280;35738;49.890;5.930;2023-06-10T03:50:17;95533.69;;;15.85;100.00
49841;BME280;35738;49.890;5.930;2023-06-10T03:52:45;95541.25;;;15.88;100.00
49841;BME280;35738;49.890;5.930;2023-06-10T03:55:12;95537.25;;;15.85;100.00
49841;BME280;35738;49.890;5.930;2023-06-10T03:57:40;95534.28;;;15.98;100.00
49841;BME280;35738;49.890;5.930;2023-06-10T04:00:07;95541.81;;;15.97;100.00
49841;BME280;35738;49.890;5.930;2023-06-10T04:02:40;95539.03;;;15.97;100.00
49841;BME280;35738;49.890;5.930;2023-06-10T04:05:13;95539.81;;;15.98;100.00
49841;BME280;35738;49.890;5.930;2023-06-10T04:07:41;95541.16;;;16.07;100.00
49841;BME280;35738;49.890;5.930;2023-06-10T04:10:12;95544.06;;;16.14;100.00
49841;BME280;35738;49.890;5.930;2023-06-10T04:12:38;95544.59;;;16.24;100.00
49841;BME280;35738;49.890;5.930;2023-06-10T04:15:06;95544.25;;;16.29;100.00
49841;BME280;35738;49.890;5.930;2023-06-10T04:17:34;95552.16;;;16.27;100.00
49841;BME280;35738;49.890;5.930;2023-06-10T04:20:01;95554.50;;;16.25;100.00
49841;BME280;35738;49.890;5.930;2023-06-10T04:22:27;95553.34;;;16.26;100.00
49841;BME280;35738;49.890;5.930;2023-06-10T04:24:55;95554.97;;;16.30;100.00
49841;BME280;35738;49.890;5.930;2023-06-10T04:27:21;95555.50;;;16.36;100.00
49841;BME280;35738;49.890;5.930;2023-06-10T04:29:48;95556.72;;;16.38;100.00
49841;BME280;35738;49.890;5.930;2023-06-10T04:32:14;95560.72;;;16.41;100.00
49841;BME280;35738;49.890;5.930;2023-06-10T04:34:41;95563.66;;;16.51;100.00
49841;BME280;35738;49.890;5.930;2023-06-10T04:37:08;95557.72;;;16.53;100.00
49841;BME280;35738;49.890;5.930;2023-06-10T04:39:35;95559.75;;;16.56;100.00
49841;BME280;35738;49.890;5.930;2023-06-10T04:42:05;95560.22;;;16.62;100.00
49841;BME280;35738;49.890;5.930;2023-06-10T04:44:32;95565.84;;;16.65;100.00
49841;BME280;35738;49.890;5.930;2023-06-10T04:46:58;95566.69;;;16.69;100.00
49841;BME280;35738;49.890;5.930;2023-06-10T04:49:25;95563.59;;;16.74;100.00
49841;BME280;35738;49.890;5.930;2023-06-10T04:51:52;95570.47;;;16.84;100.00
49841;BME280;35738;49.890;5.930;2023-06-10T04:54:18;95557.13;;;16.97;100.00
49841;BME280;35738;49.890;5.930;2023-06-10T04:56:45;95553.50;;;16.93;100.00
49841;BME280;35738;49.890;5.930;2023-06-10T04:59:11;95561.91;;;17.00;100.00
49841;BME280;35738;49.890;5.930;2023-06-10T05:01:38;95554.94;;;17.09;100.00
49841;BME280;35738;49.890;5.930;2023-06-10T05:04:05;95553.53;;;17.26;100.00
49841;BME280;35738;49.890;5.930;2023-06-10T05:06:31;95560.75;;;17.34;100.00
49841;BME280;35738;49.890;5.930;2023-06-10T05:08:58;95554.44;;;17.37;100.00
49841;BME280;35738;49.890;5.930;2023-06-10T05:11:24;95555.69;;;17.43;100.00
49841;BME280;35738;49.890;5.930;2023-06-10T05:13:51;95564.19;;;17.58;100.00
49841;BME280;35738;49.890;5.930;2023-06-10T05:16:18;95560.72;;;17.68;100.00
49841;BME280;35738;49.890;5.930;2023-06-10T05:18:44;95563.03;;;17.99;100.00
49841;BME280;35738;49.890;5.930;2023-06-10T05:21:11;95562.44;;;18.27;100.00
49841;BME280;35738;49.890;5.930;2023-06-10T05:23:38;95562.00;;;18.77;100.00
49841;BME280;35738;49.890;5.930;2023-06-10T05:26:04;95562.69;;;19.35;100.00
49841;BME280;35738;49.890;5.930;2023-06-10T05:28:31;95561.19;;;19.74;100.00
49841;BME280;35738;49.890;5.930;2023-06-10T05:30:57;95561.63;;;20.00;100.00
49841;BME280;35738;49.890;5.930;2023-06-10T05:33:24;95557.22;;;19.92;100.00
49841;BME280;35738;49.890;5.930;2023-06-10T05:35:50;95554.03;;;19.97;100.00
49841;BME280;35738;49.890;5.930;2023-06-10T05:38:17;95555.63;;;19.98;100.00
49841;BME280;35738;49.890;5.930;2023-06-10T05:40:44;95560.44;;;19.94;100.00
49841;BME280;35738;49.890;5.930;2023-06-10T05:43:10;95558.06;;;20.25;100.00
49841;BME280;35738;49.890;5.930;2023-06-10T05:45:37;95561.63;;;20.00;100.00
49841;BME280;35738;49.890;5.930;2023-06-10T05:48:04;95552.09;;;20.23;100.00
49841;BME280;35738;49.890;5.930;2023-06-10T05:50:31;95564.84;;;20.24;100.00
49841;BME280;35738;49.890;5.930;2023-06-10T05:53:05;95559.63;;;19.94;100.00
49841;BME280;35738;49.890;5.930;2023-06-10T05:55:33;95566.00;;;19.98;100.00
49841;BME280;35738;49.890;5.930;2023-06-10T05:58:00;95563.22;;;20.02;100.00
49841;BME280;35738;49.890;5.930;2023-06-10T06:00:27;95568.00;;;20.72;100.00
49841;BME280;35738;49.890;5.930;2023-06-10T06:02:54;95570.44;;;20.45;100.00
49841;BME280;35738;49.890;5.930;2023-06-10T06:05:21;95571.59;;;20.73;100.00
49841;BME280;35738;49.890;5.930;2023-06-10T06:07:47;95574.00;;;20.71;100.00
49841;BME280;35738;49.890;5.930;2023-06-10T06:10:16;95571.59;;;20.73;100.00
49841;BME280;35738;49.890;5.930;2023-06-10T06:12:43;95573.91;;;21.06;100.00
49841;BME280;35738;49.890;5.930;2023-06-10T06:15:10;95573.19;;;20.74;100.00
49841;BME280;35738;49.890;5.930;2023-06-10T06:17:37;95578.31;;;21.07;100.00
49841;BME280;35738;49.890;5.930;2023-06-10T06:20:05;95568.38;;;20.96;100.00
49841;BME280;35738;49.890;5.930;2023-06-10T06:22:31;95579.91;;;21.08;100.00
49841;BME280;35738;49.890;5.930;2023-06-10T06:24:58;95573.75;;;21.56;100.00
49841;BME280;35738;49.890;5.930;2023-06-10T06:27:25;95576.50;;;21.63;100.00
49841;BME280;35738;49.890;5.930;2023-06-10T06:29:51;95573.06;;;22.04;100.00
49841;BME280;35738;49.890;5.930;2023-06-10T06:32:19;95575.63;;;22.84;100.00
49841;BME280;35738;49.890;5.930;2023-06-10T06:34:46;95576.75;;;22.49;100.00
49841;BME280;35738;49.890;5.930;2023-06-10T06:37:12;95581.81;;;22.13;100.00
49841;BME280;35738;49.890;5.930;2023-06-10T06:39:39;95584.66;;;22.58;100.00
49841;BME280;35738;49.890;5.930;2023-06-10T06:42:06;95586.53;;;23.16;100.00
49841;BME280;35738;49.890;5.930;2023-06-10T06:44:32;95588.25;;;22.58;100.00
49841;BME280;35738;49.890;5.930;2023-06-10T06:46:59;95578.34;;;22.50;100.00
49841;BME280;35738;49.890;5.930;2023-06-10T06:49:26;95577.69;;;22.28;100.00
49841;BME280;35738;49.890;5.930;2023-06-10T06:51:53;95591.00;;;22.65;100.00
49841;BME280;35738;49.890;5.930;2023-06-10T06:54:20;95585.53;;;22.51;100.00
49841;BME280;35738;49.890;5.930;2023-06-10T06:56:47;95589.31;;;22.75;100.00
49841;BME280;35738;49.890;5.930;2023-06-10T06:59:13;95586.00;;;21.83;100.00
49841;BME280;35738;49.890;5.930;2023-06-10T07:01:41;95588.72;;;22.53;100.00
49841;BME280;35738;49.890;5.930;2023-06-10T07:04:08;95586.31;;;22.96;100.00
49841;BME280;35738;49.890;5.930;2023-06-10T07:06:35;95595.31;;;22.73;100.00
49841;BME280;35738;49.890;5.930;2023-06-10T07:09:04;95587.81;;;23.42;100.00
49841;BME280;35738;49.890;5.930;2023-06-10T07:11:31;95586.97;;;22.70;100.00
49841;BME280;35738;49.890;5.930;2023-06-10T07:13:58;95580.78;;;22.89;100.00
49841;BME280;35738;49.890;5.930;2023-06-10T07:16:24;95588.09;;;22.76;100.00
49841;BME280;35738;49.890;5.930;2023-06-10T07:18:52;95595.84;;;22.09;100.00
49841;BME280;35738;49.890;5.930;2023-06-10T07:21:19;95598.47;;;22.79;100.00
49841;BME280;35738;49.890;5.930;2023-06-10T07:23:46;95588.50;;;23.19;100.00
49841;BME280;35738;49.890;5.930;2023-06-10T07:26:12;95589.69;;;22.29;100.00
49841;BME280;35738;49.890;5.930;2023-06-10T07:28:41;95587.94;;;22.49;100.00
49841;BME280;35738;49.890;5.930;2023-06-10T07:31:08;95596.59;;;23.44;100.00
49841;BME280;35738;49.890;5.930;2023-06-10T07:33:35;95589.19;;;22.89;100.00
49841;BME280;35738;49.890;5.930;2023-06-10T07:36:03;95599.69;;;22.78;100.00
49841;BME280;35738;49.890;5.930;2023-06-10T07:38:30;95595.88;;;23.02;100.00
49841;BME280;35738;49.890;5.930;2023-06-10T07:40:56;95607.00;;;23.47;100.00
49841;BME280;35738;49.890;5.930;2023-06-10T07:43:24;95605.97;;;22.93;100.00
49841;BME280;35738;49.890;5.930;2023-06-10T07:45:51;95595.91;;;22.54;100.00
49841;BME280;35738;49.890;5.930;2023-06-10T07:48:18;95599.94;;;22.49;100.00
49841;BME280;35738;49.890;5.930;2023-06-10T07:50:44;95602.03;;;22.42;100.00
49841;BME280;35738;49.890;5.930;2023-06-10T07:53:11;95603.38;;;22.19;100.00
49841;BME280;35738;49.890;5.930;2023-06-10T07:55:38;95598.47;;;22.79;100.00
49841;BME280;35738;49.890;5.930;2023-06-10T07:58:04;95598.91;;;23.19;100.00
49841;BME280;35738;49.890;5.930;2023-06-10T08:00:31;95596.47;;;22.83;100.00
49841;BME280;35738;49.890;5.930;2023-06-10T08:02:57;95598.94;;;22.74;100.00
49841;BME280;35738;49.890;5.930;2023-06-10T08:05:24;95601.50;;;22.54;100.00
49841;BME280;35738;49.890;5.930;2023-06-10T08:07:51;95601.28;;;22.82;100.00
49841;BME280;35738;49.890;5.930;2023-06-10T08:10:17;95602.31;;;23.37;100.00
49841;BME280;35738;49.890;5.930;2023-06-10T08:12:44;95606.19;;;23.12;100.00
49841;BME280;35738;49.890;5.930;2023-06-10T08:15:11;95600.81;;;23.29;100.00
49841;BME280;35738;49.890;5.930;2023-06-10T08:17:38;95611.66;;;22.86;100.00
49841;BME280;35738;49.890;5.930;2023-06-10T08:20:06;95606.84;;;22.86;100.00
49841;BME280;35738;49.890;5.930;2023-06-10T08:22:33;95604.81;;;22.90;100.00
49841;BME280;35738;49.890;5.930;2023-06-10T08:25:00;95608.84;;;22.41;100.00
49841;BME280;35738;49.890;5.930;2023-06-10T08:27:27;95614.31;;;23.00;100.00
49841;BME280;35738;49.890;5.930;2023-06-10T08:29:53;95605.38;;;22.71;100.00
49841;BME280;35738;49.890;5.930;2023-06-10T08:32:20;95608.81;;;23.30;100.00
49841;BME280;35738;49.890;5.930;2023-06-10T08:34:47;95608.97;;;23.16;100.00
49841;BME280;35738;49.890;5.930;2023-06-10T08:37:13;95605.44;;;23.08;100.00
49841;BME280;35738;49.890;5.930;2023-06-10T08:39:40;95599.09;;;23.01;100.00
49841;BME280;35738;49.890;5.930;2023-06-10T08:42:24;95604.69;;;23.04;100.00
49841;BME280;35738;49.890;5.930;2023-06-10T08:44:54;95597.38;;;23.14;100.00
49841;BME280;35738;49.890;5.930;2023-06-10T08:47:30;95612.75;;;22.95;100.00
49841;BME280;35738;49.890;5.930;2023-06-10T08:50:03;95607.94;;;22.96;100.00
49841;BME280;35738;49.890;5.930;2023-06-10T08:52:37;95617.22;;;22.89;100.00
49841;BME280;35738;49.890;5.930;2023-06-10T08:55:14;95616.00;;;23.31;100.00
49841;BME280;35738;49.890;5.930;2023-06-10T08:57:41;95609.69;;;23.24;100.00
49841;BME280;35738;49.890;5.930;2023-06-10T09:00:10;95602.03;;;23.28;100.00
49841;BME280;35738;49.890;5.930;2023-06-10T09:02:38;95610.34;;;22.97;100.00
49841;BME280;35738;49.890;5.930;2023-06-10T09:05:05;95599.72;;;23.19;100.00
49841;BME280;35738;49.890;5.930;2023-06-10T09:07:32;95610.94;;;22.74;100.00
49841;BME280;35738;49.890;5.930;2023-06-10T09:10:01;95600.94;;;23.18;100.00
49841;BME280;35738;49.890;5.930;2023-06-10T09:12:30;95607.91;;;23.37;100.00
49841;BME280;35738;49.890;5.930;2023-06-10T09:14:56;95604.22;;;23.77;100.00
49841;BME280;35738;49.890;5.930;2023-06-10T09:17:24;95594.25;;;23.73;100.00
49841;BME280;35738;49.890;5.930;2023-06-10T09:19:52;95599.38;;;23.48;100.00
49841;BME280;35738;49.890;5.930;2023-06-10T09:22:21;95597.09;;;23.69;100.00
49841;BME280;35738;49.890;5.930;2023-06-10T09:24:48;95600.22;;;23.79;100.00
49841;BME280;35738;49.890;5.930;2023-06-10T09:27:15;95602.13;;;23.85;100.00
49841;BME280;35738;49.890;5.930;2023-06-10T09:30:00;95610.09;;;23.90;100.00
49841;BME280;35738;49.890;5.930;2023-06-10T09:32:26;95607.16;;;23.67;100.00
49841;BME280;35738;49.890;5.930;2023-06-10T09:34:54;95613.88;;;23.42;100.00
49841;BME280;35738;49.890;5.930;2023-06-10T09:37:24;95606.28;;;24.04;100.00
49841;BME280;35738;49.890;5.930;2023-06-10T09:40:05;95603.78;;;23.83;100.00
49841;BME280;35738;49.890;5.930;2023-06-10T09:42:34;95604.88;;;23.58;100.00
49841;BME280;35738;49.890;5.930;2023-06-10T09:45:03;95607.06;;;24.04;100.00
49841;BME280;35738;49.890;5.930;2023-06-10T09:47:29;95597.94;;;24.27;100.00
49841;BME280;35738;49.890;5.930;2023-06-10T09:49:57;95597.53;;;23.98;100.00
49841;BME280;35738;49.890;5.930;2023-06-10T09:52:25;95598.81;;;23.94;100.00
49841;BME280;35738;49.890;5.930;2023-06-10T09:54:54;95608.28;;;23.39;100.00
49841;BME280;35738;49.890;5.930;2023-06-10T09:57:21;95588.75;;;23.96;100.00
49841;BME280;35738;49.890;5.930;2023-06-10T09:59:48;95601.47;;;24.31;100.00
49841;BME280;35738;49.890;5.930;2023-06-10T10:02:22;95601.28;;;23.88;100.00
49841;BME280;35738;49.890;5.930;2023-06-10T10:04:49;95594.78;;;24.22;100.00
49841;BME280;35738;49.890;5.930;2023-06-10T10:07:15;95594.19;;;24.07;100.00
49841;BME280;35738;49.890;5.930;2023-06-10T10:09:42;95595.69;;;24.15;100.00
49841;BME280;35738;49.890;5.930;2023-06-10T10:12:11;95596.53;;;24.12;100.00
49841;BME280;35738;49.890;5.930;2023-06-10T10:14:39;95605.69;;;23.89;100.00
49841;BME280;35738;49.890;5.930;2023-06-10T10:17:11;95598.09;;;23.56;100.00
49841;BME280;35738;49.890;5.930;2023-06-10T10:19:46;95592.44;;;23.90;100.00
49841;BME280;35738;49.890;5.930;2023-06-10T10:22:26;95596.97;;;24.37;100.00
49841;BME280;35738;49.890;5.930;2023-06-10T10:25:00;95593.66;;;24.43;100.00
49841;BME280;35738;49.890;5.930;2023-06-10T10:27:31;95595.56;;;24.22;100.00
49841;BME280;35738;49.890;5.930;2023-06-10T10:30:01;95578.19;;;24.58;100.00
49841;BME280;35738;49.890;5.930;2023-06-10T10:32:45;95589.94;;;24.49;100.00
49841;BME280;35738;49.890;5.930;2023-06-10T10:35:22;95593.63;;;24.69;100.00
49841;BME280;35738;49.890;5.930;2023-06-10T10:37:54;95591.50;;;24.77;100.00
49841;BME280;35738;49.890;5.930;2023-06-10T10:40:22;95589.38;;;24.61;100.00
49841;BME280;35738;49.890;5.930;2023-06-10T10:42:50;95582.69;;;24.75;100.00
49841;BME280;35738;49.890;5.930;2023-06-10T10:45:17;95580.88;;;24.65;100.00
49841;BME280;35738;49.890;5.930;2023-06-10T10:47:45;95588.94;;;24.09;100.00
49841;BME280;35738;49.890;5.930;2023-06-10T10:50:17;95582.78;;;24.18;100.00
49841;BME280;35738;49.890;5.930;2023-06-10T10:52:51;95586.88;;;24.40;100.00
49841;BME280;35738;49.890;5.930;2023-06-10T10:55:19;95583.28;;;24.39;100.00
49841;BME280;35738;49.890;5.930;2023-06-10T10:58:02;95584.16;;;24.60;100.00
49841;BME280;35738;49.890;5.930;2023-06-10T11:00:43;95577.03;;;24.28;100.00
49841;BME280;35738;49.890;5.930;2023-06-10T11:03:16;95584.16;;;25.07;100.00
49841;BME280;35738;49.890;5.930;2023-06-10T11:05:47;95578.59;;;25.03;100.00
49841;BME280;35738;49.890;5.930;2023-06-10T11:11:19;95587.22;;;25.36;100.00
49841;BME280;35738;49.890;5.930;2023-06-10T11:14:06;95582.28;;;24.53;100.00
49841;BME280;35738;49.890;5.930;2023-06-10T11:16:43;95576.16;;;25.05;100.00
49841;BME280;35738;49.890;5.930;2023-06-10T11:22:03;95585.47;;;24.28;100.00
49841;BME280;35738;49.890;5.930;2023-06-10T11:24:30;95585.75;;;24.61;100.00
49841;BME280;35738;49.890;5.930;2023-06-10T11:27:23;95573.31;;;24.08;100.00
49841;BME280;35738;49.890;5.930;2023-06-10T11:32:32;95576.53;;;24.06;100.00
49841;BME280;35738;49.890;5.930;2023-06-10T11:34:59;95567.94;;;24.44;100.00
49841;BME280;35738;49.890;5.930;2023-06-10T11:37:27;95573.28;;;24.62;100.00
49841;BME280;35738;49.890;5.930;2023-06-10T11:39:55;95569.72;;;24.81;100.00
49841;BME280;35738;49.890;5.930;2023-06-10T11:42:22;95576.53;;;23.80;100.00
49841;BME280;35738;49.890;5.930;2023-06-10T11:44:50;95577.44;;;24.00;100.00
49841;BME280;35738;49.890;5.930;2023-06-10T11:47:18;95579.44;;;24.26;100.00
49841;BME280;35738;49.890;5.930;2023-06-10T11:49:46;95561.97;;;24.65;100.00
49841;BME280;35738;49.890;5.930;2023-06-10T11:52:29;95571.91;;;24.47;100.00
49841;BME280;35738;49.890;5.930;2023-06-10T11:54:56;95568.56;;;25.02;100.00
49841;BME280;35738;49.890;5.930;2023-06-10T11:57:22;95567.66;;;24.62;100.00
49841;BME280;35738;49.890;5.930;2023-06-10T11:59:49;95564.09;;;25.05;100.00
49841;BME280;35738;49.890;5.930;2023-06-10T12:02:17;95564.84;;;24.85;100.00
49841;BME280;35738;49.890;5.930;2023-06-10T12:04:45;95566.97;;;24.78;100.00
49841;BME280;35738;49.890;5.930;2023-06-10T12:07:18;95559.00;;;24.53;100.00
49841;BME280;35738;49.890;5.930;2023-06-10T12:09:46;95563.47;;;24.47;100.00
49841;BME280;35738;49.890;5.930;2023-06-10T12:12:13;95570.38;;;24.89;100.00
49841;BME280;35738;49.890;5.930;2023-06-10T12:14:54;95562.22;;;25.18;100.00
49841;BME280;35738;49.890;5.930;2023-06-10T12:17:44;95560.75;;;24.66;100.00
49841;BME280;35738;49.890;5.930;2023-06-10T12:20:25;95556.75;;;25.11;100.00
49841;BME280;35738;49.890;5.930;2023-06-10T12:22:52;95564.13;;;24.58;100.00
49841;BME280;35738;49.890;5.930;2023-06-10T12:25:24;95560.03;;;24.62;100.00
49841;BME280;35738;49.890;5.930;2023-06-10T12:27:53;95560.84;;;24.83;100.00
49841;BME280;35738;49.890;5.930;2023-06-10T12:30:22;95554.81;;;24.84;100.00
49841;BME280;35738;49.890;5.930;2023-06-10T12:32:50;95551.47;;;25.13;100.00
49841;BME280;35738;49.890;5.930;2023-06-10T12:35:18;95543.16;;;25.65;100.00
49841;BME280;35738;49.890;5.930;2023-06-10T12:40:31;95542.91;;;24.53;100.00
49841;BME280;35738;49.890;5.930;2023-06-10T12:42:59;95560.19;;;24.25;100.00
49841;BME280;35738;49.890;5.930;2023-06-10T12:45:33;95558.09;;;24.05;100.00
49841;BME280;35738;49.890;5.930;2023-06-10T12:48:19;95560.69;;;24.20;100.00
49841;BME280;35738;49.890;5.930;2023-06-10T12:50:54;95545.03;;;24.69;100.00
49841;BME280;35738;49.890;5.930;2023-06-10T12:53:22;95546.94;;;25.39;100.00
49841;BME280;35738;49.890;5.930;2023-06-10T12:55:55;95546.56;;;25.76;100.00
49841;BME280;35738;49.890;5.930;2023-06-10T12:58:22;95554.22;;;25.16;100.00
49841;BME280;35738;49.890;5.930;2023-06-10T13:00:49;95544.78;;;24.83;100.00
49841;BME280;35738;49.890;5.930;2023-06-10T13:03:19;95548.22;;;24.71;100.00
49841;BME280;35738;49.890;5.930;2023-06-10T13:05:46;95541.84;;;24.44;100.00
49841;BME280;35738;49.890;5.930;2023-06-10T13:08:12;95543.41;;;24.91;100.00
49841;BME280;35738;49.890;5.930;2023-06-10T13:10:39;95541.81;;;25.33;100.00